Time;durP1;ratioP1;P1;durP2;ratioP2;P2;SDS_P1;SDS_P2;PMS_P1;PMS_P2;Temp;Humidity;BMP_temperature;BMP_pressure;BME280_temperature;BME280_humidity;BME280_pressure;Samples;Min_cycle;Max_cycle;Signal;HPM_P1;HPM_P2
2021/06/03 00:02:09;;;;;;;14.40;3.93;;;16.00;99.90;;;;;;5042401;28;20202;-73
2021/06/03 00:04:35;;;;;;;6.83;3.10;;;15.80;99.90;;;;;;5059051;28;20200;-72
2021/06/03 00:07:04;;;;;;;16.40;3.70;;;15.80;99.90;;;;;;5038521;28;20263;-74
2021/06/03 00:09:30;;;;;;;9.57;3.13;;;15.70;99.90;;;;;;5059530;28;20248;-70
2021/06/03 00:11:57;;;;;;;17.27;3.53;;;15.50;99.90;;;;;;5062147;28;20225;-70
2021/06/03 00:14:25;;;;;;;12.90;3.63;;;15.50;99.90;;;;;;5056729;28;20187;-71
2021/06/03 00:16:51;;;;;;;12.37;3.50;;;15.60;99.90;;;;;;5041800;28;20563;-71
2021/06/03 00:19:18;;;;;;;13.40;3.73;;;15.70;99.90;;;;;;5057866;28;20213;-71
2021/06/03 00:21:45;;;;;;;15.60;3.57;;;15.50;99.90;;;;;;5060284;28;20195;-70
2021/06/03 00:24:13;;;;;;;10.90;3.73;;;15.50;99.90;;;;;;5057895;28;20219;-70
2021/06/03 00:26:41;;;;;;;13.57;4.33;;;15.40;99.90;;;;;;5059884;28;20699;-72
2021/06/03 00:29:11;;;;;;;15.60;3.67;;;15.30;99.90;;;;;;5063587;28;20717;-70
2021/06/03 00:31:37;;;;;;;11.73;3.77;;;15.30;99.90;;;;;;5056860;28;20202;-73
2021/06/03 00:34:04;;;;;;;10.20;3.60;;;15.40;99.90;;;;;;5057245;28;20186;-72
2021/06/03 00:36:32;;;;;;;11.27;3.87;;;15.40;99.90;;;;;;5057635;28;20236;-73
2021/06/03 00:38:58;;;;;;;15.17;4.30;;;15.40;99.90;;;;;;5045943;28;20244;-72
2021/06/03 00:41:25;;;;;;;14.87;4.40;;;15.60;99.90;;;;;;5064776;28;20190;-72
2021/06/03 00:43:52;;;;;;;10.97;3.43;;;15.80;99.90;;;;;;5054829;28;20703;-73
2021/06/03 00:46:18;;;;;;;14.37;4.37;;;15.80;99.90;;;;;;5058926;28;20226;-72
2021/06/03 00:48:44;;;;;;;15.10;4.00;;;15.70;99.90;;;;;;5061219;28;20190;-72
2021/06/03 00:51:11;;;;;;;16.10;3.67;;;15.70;99.90;;;;;;5043420;28;20663;-73
2021/06/03 00:53:40;;;;;;;16.43;4.30;;;15.80;99.90;;;;;;5061322;28;20198;-72
2021/06/03 00:56:07;;;;;;;10.07;3.60;;;15.80;99.90;;;;;;5059963;28;20190;-72
2021/06/03 00:58:37;;;;;;;16.43;3.83;;;15.80;99.90;;;;;;5059291;28;20741;-72
2021/06/03 01:01:04;;;;;;;12.07;4.10;;;15.80;99.90;;;;;;5057435;28;20191;-71
2021/06/03 01:03:33;;;;;;;14.47;4.43;;;15.70;99.90;;;;;;5059600;28;20765;-71
2021/06/03 01:06:07;;;;;;;10.40;3.70;;;15.70;99.90;;;;;;5060396;28;20203;-72
2021/06/03 01:09:35;;;;;;;9.97;3.67;;;15.70;99.90;;;;;;5061189;28;20197;-71
2021/06/03 01:12:20;;;;;;;12.10;4.07;;;15.80;99.90;;;;;;5019345;28;20239;-72
2021/06/03 01:14:55;;;;;;;17.57;3.93;;;15.70;99.90;;;;;;5022334;28;20280;-72
2021/06/03 01:17:23;;;;;;;18.10;4.40;;;15.60;99.90;;;;;;5049179;28;20285;-71
2021/06/03 01:19:53;;;;;;;19.43;4.17;;;15.50;99.90;;;;;;5062147;28;20522;-72
2021/06/03 01:22:47;;;;;;;14.27;4.23;;;15.50;99.90;;;;;;5060840;28;20248;-71
2021/06/03 01:25:16;;;;;;;14.30;4.30;;;15.60;99.90;;;;;;5060632;28;20215;-73
2021/06/03 01:27:43;;;;;;;13.93;3.80;;;15.60;99.90;;;;;;5071649;28;20187;-71
2021/06/03 01:30:21;;;;;;;14.63;3.57;;;15.70;99.90;;;;;;5056303;28;20248;-72
2021/06/03 01:33:05;;;;;;;13.83;4.20;;;15.70;99.90;;;;;;5061265;28;20210;-72
2021/06/03 01:35:41;;;;;;;10.80;4.00;;;15.70;99.90;;;;;;5045178;28;20190;-73
2021/06/03 01:38:13;;;;;;;14.43;4.20;;;15.60;99.90;;;;;;5050004;28;20190;-73
2021/06/03 01:40:45;;;;;;;14.67;3.93;;;15.60;99.90;;;;;;5058491;28;20309;-73
2021/06/03 01:43:14;;;;;;;13.07;4.60;;;15.50;99.90;;;;;;5060022;28;20175;-72
2021/06/03 01:45:42;;;;;;;13.63;4.07;;;15.50;99.90;;;;;;5056453;28;20198;-72
2021/06/03 01:48:11;;;;;;;11.17;3.67;;;15.50;99.90;;;;;;5059927;28;20547;-72
2021/06/03 01:50:40;;;;;;;14.30;3.67;;;15.40;99.90;;;;;;5082234;28;20390;-75
2021/06/03 01:53:08;;;;;;;11.10;3.77;;;15.50;99.90;;;;;;5059741;28;20222;-72
2021/06/03 01:55:35;;;;;;;14.00;4.03;;;15.40;99.90;;;;;;5039778;28;21001;-72
2021/06/03 01:58:04;;;;;;;13.63;3.33;;;15.40;99.90;;;;;;5049986;28;20302;-72
2021/06/03 02:00:31;;;;;;;20.33;4.37;;;15.40;99.90;;;;;;5056535;28;20209;-72
2021/06/03 02:02:58;;;;;;;16.33;4.00;;;15.40;99.90;;;;;;5053386;28;20717;-73
2021/06/03 02:05:24;;;;;;;11.67;4.07;;;15.50;99.90;;;;;;5055427;28;20215;-72
2021/06/03 02:07:57;;;;;;;13.33;3.87;;;15.60;99.90;;;;;;5053597;28;20640;-74
2021/06/03 02:10:34;;;;;;;19.07;3.80;;;15.70;99.90;;;;;;5056915;28;20652;-74
2021/06/03 02:13:28;;;;;;;13.53;4.40;;;15.60;99.90;;;;;;5056634;28;20215;-73
2021/06/03 02:16:43;;;;;;;16.73;4.37;;;15.60;99.90;;;;;;5054712;28;20187;-73
2021/06/03 02:19:55;;;;;;;16.13;4.37;;;15.70;99.90;;;;;;5059590;28;20186;-73
2021/06/03 02:22:35;;;;;;;14.20;3.97;;;15.60;99.90;;;;;;5057000;28;20190;-75
2021/06/03 02:25:07;;;;;;;12.20;4.10;;;15.50;99.90;;;;;;5056592;28;20269;-74
2021/06/03 02:27:35;;;;;;;15.50;4.67;;;15.70;99.90;;;;;;5063609;28;20210;-74
2021/06/03 02:30:05;;;;;;;15.07;4.73;;;15.80;99.90;;;;;;5043435;28;20293;-75
2021/06/03 02:32:35;;;;;;;13.53;4.33;;;15.80;99.90;;;;;;5061561;28;20199;-74
2021/06/03 02:35:04;;;;;;;11.33;4.00;;;15.90;99.90;;;;;;5058146;28;20668;-75
2021/06/03 02:37:30;;;;;;;21.70;5.00;;;15.80;99.90;;;;;;5060919;28;20218;-74
2021/06/03 02:40:11;;;;;;;16.33;4.83;;;15.80;99.90;;;;;;5061024;28;20191;-73
2021/06/03 02:42:40;;;;;;;12.30;4.87;;;15.80;99.90;;;;;;5065678;28;20178;-73
2021/06/03 02:45:14;;;;;;;16.87;4.70;;;16.00;99.90;;;;;;5061354;28;20306;-74
2021/06/03 02:47:41;;;;;;;14.23;4.60;;;16.00;99.90;;;;;;5061703;28;20187;-73
2021/06/03 02:50:11;;;;;;;12.70;4.60;;;16.00;99.90;;;;;;5046570;28;20187;-75
2021/06/03 02:52:40;;;;;;;15.03;4.57;;;16.10;99.90;;;;;;5059971;28;20210;-74
2021/06/03 02:55:14;;;;;;;14.33;4.33;;;16.20;99.90;;;;;;5064209;28;20249;-74
2021/06/03 02:57:40;;;;;;;19.37;4.63;;;16.20;99.90;;;;;;5054785;28;20256;-74
2021/06/03 03:00:25;;;;;;;8.97;4.20;;;16.30;99.90;;;;;;5054482;28;20186;-74
2021/06/03 03:02:52;;;;;;;11.20;4.30;;;16.40;99.90;;;;;;5056623;28;20478;-73
2021/06/03 03:05:20;;;;;;;12.53;4.47;;;16.40;99.90;;;;;;5056262;28;20218;-74
2021/06/03 03:07:47;;;;;;;16.93;4.03;;;16.50;99.90;;;;;;5059366;28;20573;-73
2021/06/03 03:10:23;;;;;;;12.10;4.17;;;16.50;99.90;;;;;;5062612;28;20195;-74
2021/06/03 03:12:50;;;;;;;13.97;4.40;;;16.50;99.90;;;;;;5059833;28;20222;-74
2021/06/03 03:15:19;;;;;;;11.57;4.03;;;16.60;99.90;;;;;;5077231;28;20278;-73
2021/06/03 03:17:46;;;;;;;11.33;3.80;;;16.60;99.90;;;;;;5055919;28;20278;-74
2021/06/03 03:20:17;;;;;;;13.80;4.17;;;16.60;99.90;;;;;;5054778;28;20183;-74
2021/06/03 03:22:44;;;;;;;13.03;4.07;;;16.50;99.90;;;;;;5058881;28;20278;-73
2021/06/03 03:25:14;;;;;;;12.53;4.87;;;16.60;99.90;;;;;;5042030;28;20202;-74
2021/06/03 03:27:43;;;;;;;15.40;4.13;;;16.60;99.90;;;;;;5041988;28;20187;-73
2021/06/03 03:30:13;;;;;;;16.33;4.73;;;16.70;99.90;;;;;;5044757;28;20684;-73
2021/06/03 03:32:41;;;;;;;10.87;4.17;;;16.80;99.90;;;;;;5071738;28;20282;-73
2021/06/03 03:35:09;;;;;;;15.17;4.40;;;16.90;99.90;;;;;;5059706;28;20203;-73
2021/06/03 03:37:38;;;;;;;15.17;4.53;;;16.70;99.90;;;;;;5075030;28;20524;-73
2021/06/03 03:40:11;;;;;;;12.77;4.03;;;16.70;99.90;;;;;;5059879;28;20782;-72
2021/06/03 03:42:38;;;;;;;14.30;4.23;;;16.60;99.90;;;;;;5061343;28;20202;-72
2021/06/03 03:45:09;;;;;;;12.00;4.03;;;16.60;99.90;;;;;;5061629;28;20318;-74
2021/06/03 03:47:36;;;;;;;12.50;4.40;;;16.70;99.90;;;;;;5060066;28;20198;-73
2021/06/03 03:50:09;;;;;;;17.27;4.73;;;16.70;99.90;;;;;;5061059;28;20198;-74
2021/06/03 03:52:36;;;;;;;18.87;4.53;;;16.70;99.90;;;;;;5061902;28;20233;-73
2021/06/03 03:55:05;;;;;;;12.77;4.57;;;16.70;99.90;;;;;;5041183;28;20225;-72
2021/06/03 03:57:32;;;;;;;13.60;4.13;;;16.80;99.90;;;;;;5057368;28;20522;-72
2021/06/03 03:59:58;;;;;;;17.77;4.67;;;16.80;99.90;;;;;;5059802;28;20245;-71
2021/06/03 04:02:24;;;;;;;21.60;5.00;;;16.90;99.90;;;;;;5063556;28;20187;-72
2021/06/03 04:04:51;;;;;;;16.00;4.50;;;17.00;99.90;;;;;;5065496;28;20335;-71
2021/06/03 04:07:17;;;;;;;17.67;4.47;;;17.10;99.90;;;;;;5053214;28;20523;-72
2021/06/03 04:09:43;;;;;;;13.50;4.10;;;17.10;99.90;;;;;;5061297;28;20191;-72
2021/06/03 04:12:10;;;;;;;13.53;3.67;;;17.20;99.90;;;;;;5062020;28;20660;-71
2021/06/03 04:14:36;;;;;;;12.87;3.80;;;17.20;99.90;;;;;;5044221;28;20278;-72
2021/06/03 04:17:03;;;;;;;14.73;3.77;;;17.30;99.90;;;;;;5073661;28;20199;-73
2021/06/03 04:19:29;;;;;;;11.63;3.40;;;17.50;99.90;;;;;;5059876;28;20705;-71
2021/06/03 04:21:58;;;;;;;14.53;4.03;;;17.50;99.90;;;;;;5063356;28;20190;-72
2021/06/03 04:24:26;;;;;;;12.63;4.30;;;17.60;99.90;;;;;;5063571;28;20187;-71
2021/06/03 04:26:52;;;;;;;15.13;4.10;;;17.70;99.90;;;;;;5058016;28;20198;-72
2021/06/03 04:29:19;;;;;;;17.27;4.17;;;17.80;99.90;;;;;;5061364;28;20205;-72
2021/06/03 04:31:45;;;;;;;12.27;4.03;;;17.90;99.90;;;;;;5051646;28;20210;-72
2021/06/03 04:34:12;;;;;;;11.33;3.77;;;17.90;99.90;;;;;;5061670;28;20202;-71
2021/06/03 04:36:38;;;;;;;11.03;3.80;;;18.00;99.90;;;;;;5059456;28;20706;-72
2021/06/03 04:39:05;;;;;;;12.80;3.27;;;18.10;99.90;;;;;;5059783;28;20183;-73
2021/06/03 04:41:32;;;;;;;13.43;3.60;;;18.10;99.90;;;;;;5057670;28;20191;-72
2021/06/03 04:43:58;;;;;;;13.13;3.53;;;18.20;99.90;;;;;;5044245;28;20191;-74
2021/06/03 04:46:24;;;;;;;10.63;2.87;;;18.20;99.90;;;;;;5058723;28;21009;-71
2021/06/03 04:48:50;;;;;;;14.00;3.67;;;18.30;99.90;;;;;;5062269;28;20278;-72
2021/06/03 04:51:17;;;;;;;9.53;3.37;;;18.30;99.90;;;;;;5058354;28;20718;-74
2021/06/03 04:53:43;;;;;;;14.80;3.47;;;18.40;99.90;;;;;;5044898;28;20191;-74
2021/06/03 04:56:10;;;;;;;10.53;3.80;;;18.50;99.90;;;;;;5058580;28;20191;-74
2021/06/03 04:58:36;;;;;;;13.60;3.33;;;18.50;99.90;;;;;;5061898;28;20667;-74
2021/06/03 05:01:03;;;;;;;8.60;3.20;;;18.60;99.90;;;;;;5043165;28;20203;-73
2021/06/03 05:03:29;;;;;;;12.13;3.70;;;18.70;99.90;;;;;;5044886;28;20191;-73
2021/06/03 05:05:55;;;;;;;14.33;3.53;;;18.90;99.90;;;;;;5057672;28;20711;-75
2021/06/03 05:08:21;;;;;;;12.17;3.37;;;18.90;99.90;;;;;;5058938;28;20195;-75
2021/06/03 05:10:48;;;;;;;15.53;3.20;;;18.90;99.90;;;;;;5055355;28;20252;-75
2021/06/03 05:13:14;;;;;;;11.87;3.43;;;19.00;99.90;;;;;;5042919;28;20247;-75
2021/06/03 05:15:40;;;;;;;7.33;2.63;;;19.20;99.90;;;;;;5047352;28;20610;-74
2021/06/03 05:18:07;;;;;;;7.33;2.50;;;19.10;99.90;;;;;;5043390;28;20951;-75
2021/06/03 05:20:34;;;;;;;6.57;2.70;;;19.30;99.90;;;;;;5060919;28;20818;-75
2021/06/03 05:23:01;;;;;;;14.90;3.53;;;19.40;99.90;;;;;;5056279;28;20278;-75
2021/06/03 05:25:30;;;;;;;11.60;3.20;;;19.50;99.90;;;;;;5045539;28;20253;-75
2021/06/03 05:27:57;;;;;;;7.93;3.00;;;19.40;99.90;;;;;;5061525;28;20195;-75
2021/06/03 05:30:25;;;;;;;7.80;2.90;;;19.40;99.90;;;;;;5057617;28;21914;-75
2021/06/03 05:32:52;;;;;;;9.77;3.03;;;19.50;99.90;;;;;;5060729;28;20786;-75
2021/06/03 05:35:21;;;;;;;6.33;2.70;;;19.60;99.90;;;;;;5060544;28;20195;-75
2021/06/03 05:37:49;;;;;;;12.27;3.27;;;19.70;99.90;;;;;;5055612;28;20195;-76
2021/06/03 05:40:21;;;;;;;8.20;2.67;;;19.70;99.90;;;;;;5055876;28;20217;-75
2021/06/03 05:42:51;;;;;;;9.73;2.60;;;19.70;99.90;;;;;;5066957;28;20244;-74
2021/06/03 05:45:18;;;;;;;10.07;3.47;;;19.80;99.90;;;;;;5046295;28;20229;-75
2021/06/03 05:47:45;;;;;;;10.77;3.13;;;19.90;99.90;;;;;;5059990;28;20304;-75
2021/06/03 05:50:15;;;;;;;7.67;3.00;;;20.00;99.90;;;;;;5059312;28;20199;-75
2021/06/03 05:52:43;;;;;;;5.73;2.30;;;20.00;99.90;;;;;;5053928;28;20261;-76
2021/06/03 05:55:13;;;;;;;12.40;3.27;;;20.10;99.90;;;;;;5062467;28;20195;-75
2021/06/03 05:57:41;;;;;;;9.10;2.80;;;20.20;99.90;;;;;;5043982;28;20194;-75
2021/06/03 06:00:32;;;;;;;7.03;2.80;;;20.40;99.90;;;;;;5057983;28;20192;-75
2021/06/03 06:03:05;;;;;;;10.23;3.07;;;20.50;99.90;;;;;;5088022;28;20733;-75
2021/06/03 06:08:17;;;;;;;7.37;2.43;;;20.50;99.90;;;;;;5065650;28;20332;-75
2021/06/03 06:10:44;;;;;;;10.87;2.67;;;20.70;99.90;;;;;;5059322;28;20205;-76
2021/06/03 06:13:11;;;;;;;6.43;2.10;;;20.80;99.90;;;;;;5067093;28;20682;-75
2021/06/03 06:15:40;;;;;;;7.17;2.30;;;20.80;99.90;;;;;;5046984;28;20270;-75
2021/06/03 06:18:09;;;;;;;9.77;2.60;;;21.00;99.90;;;;;;5057262;28;20281;-75
2021/06/03 06:20:38;;;;;;;10.40;2.23;;;21.00;99.90;;;;;;5058743;28;20269;-74
2021/06/03 06:23:05;;;;;;;9.30;2.00;;;21.20;99.90;;;;;;5064407;28;20199;-75
2021/06/03 06:25:31;;;;;;;7.67;2.17;;;21.50;99.90;;;;;;5063941;28;20204;-74
2021/06/03 06:27:59;;;;;;;10.03;2.77;;;21.50;99.90;;;;;;5041988;28;20245;-74
2021/06/03 06:30:27;;;;;;;13.50;2.27;;;21.60;99.90;;;;;;5046009;28;20851;-74
2021/06/03 06:32:55;;;;;;;7.47;2.37;;;21.50;99.90;;;;;;5059207;28;20215;-74
2021/06/03 06:35:21;;;;;;;9.00;2.70;;;21.60;99.90;;;;;;5057387;28;20184;-74
2021/06/03 06:37:47;;;;;;;7.83;2.53;;;21.60;99.90;;;;;;5044095;28;20199;-75
2021/06/03 06:40:14;;;;;;;6.50;2.23;;;21.60;99.90;;;;;;5047201;28;20191;-75
2021/06/03 06:42:40;;;;;;;4.63;1.93;;;21.80;99.90;;;;;;5046542;28;20198;-75
2021/06/03 06:45:09;;;;;;;6.93;2.20;;;22.00;99.90;;;;;;5055878;28;20821;-76
2021/06/03 06:47:36;;;;;;;8.80;2.17;;;22.10;99.90;;;;;;5063360;28;20199;-76
2021/06/03 06:50:07;;;;;;;3.30;1.70;;;22.20;99.90;;;;;;5065979;28;20218;-76
2021/06/03 06:52:34;;;;;;;5.63;2.03;;;22.20;99.90;;;;;;5047636;28;21116;-76
2021/06/03 06:55:01;;;;;;;3.83;1.80;;;22.20;99.90;;;;;;5066351;28;20186;-74
2021/06/03 06:57:27;;;;;;;4.80;2.00;;;22.10;99.90;;;;;;5046052;28;20183;-75
2021/06/03 06:59:53;;;;;;;2.03;1.53;;;22.20;99.90;;;;;;5049244;28;20291;-77
2021/06/03 07:02:21;;;;;;;8.73;1.77;;;22.20;99.90;;;;;;5044296;28;20462;-74
2021/06/03 07:04:47;;;;;;;2.33;1.50;;;22.10;99.90;;;;;;5060377;28;20237;-77
2021/06/03 07:07:14;;;;;;;3.23;1.70;;;22.30;99.90;;;;;;5065748;28;20279;-75
2021/06/03 07:09:40;;;;;;;4.33;1.33;;;22.30;99.90;;;;;;5045366;28;20183;-75
2021/06/03 07:12:07;;;;;;;6.30;1.80;;;22.60;99.90;;;;;;5061074;28;20218;-75
2021/06/03 07:14:33;;;;;;;3.43;1.67;;;22.60;99.90;;;;;;5059581;28;20719;-75
2021/06/03 07:17:00;;;;;;;3.50;1.77;;;23.10;99.90;;;;;;5057841;28;20261;-75
2021/06/03 07:19:26;;;;;;;5.47;1.60;;;23.10;99.90;;;;;;5060080;28;20191;-74
2021/06/03 07:21:53;;;;;;;3.03;1.57;;;22.90;99.90;;;;;;5066435;28;20206;-75
2021/06/03 07:24:19;;;;;;;5.97;2.07;;;23.00;99.20;;;;;;5051746;28;20187;-75
2021/06/03 07:26:46;;;;;;;8.03;2.30;;;23.10;98.70;;;;;;5065351;28;20203;-75
2021/06/03 07:29:13;;;;;;;5.00;2.17;;;23.30;98.30;;;;;;5062466;28;20286;-75
2021/06/03 07:31:39;;;;;;;2.90;1.57;;;23.40;99.30;;;;;;5043193;28;20761;-75
2021/06/03 07:34:06;;;;;;;7.40;2.10;;;23.50;98.30;;;;;;5053269;28;20199;-74
2021/06/03 07:36:34;;;;;;;8.57;2.40;;;23.50;98.30;;;;;;5059245;28;20722;-75
2021/06/03 07:39:05;;;;;;;10.90;3.20;;;23.60;99.90;;;;;;5047613;28;20297;-73
2021/06/03 07:41:33;;;;;;;8.70;2.70;;;23.50;99.90;;;;;;5041920;28;20199;-75
2021/06/03 07:44:00;;;;;;;9.07;3.00;;;23.80;99.90;;;;;;5055531;28;20226;-73
2021/06/03 07:46:27;;;;;;;9.60;2.80;;;24.00;99.90;;;;;;5060856;28;20195;-76
2021/06/03 07:48:53;;;;;;;9.90;3.37;;;24.00;99.90;;;;;;5055809;28;20211;-75
2021/06/03 07:51:19;;;;;;;14.83;3.00;;;23.80;99.90;;;;;;5070011;28;20276;-75
2021/06/03 07:53:45;;;;;;;13.10;3.35;;;23.80;99.90;;;;;;5071171;28;20202;-75
2021/06/03 07:56:12;;;;;;;15.13;2.90;;;24.00;99.90;;;;;;5059952;28;20196;-74
2021/06/03 07:58:38;;;;;;;12.38;3.30;;;24.00;99.90;;;;;;5055813;28;20191;-73
2021/06/03 08:01:04;;;;;;;14.03;2.67;;;24.20;99.90;;;;;;5071626;28;21494;-73
2021/06/03 08:03:31;;;;;;;9.93;3.10;;;24.30;99.90;;;;;;5057710;28;20202;-73
2021/06/03 08:05:57;;;;;;;8.93;2.63;;;24.30;99.90;;;;;;5057986;28;20263;-73
2021/06/03 08:08:24;;;;;;;13.17;3.50;;;24.40;99.90;;;;;;5061666;28;20195;-72
2021/06/03 08:10:51;;;;;;;9.80;2.88;;;24.50;99.90;;;;;;5046424;28;20552;-73
2021/06/03 08:13:18;;;;;;;11.00;2.80;;;24.50;99.90;;;;;;5058172;28;20293;-73
2021/06/03 08:15:46;;;;;;;8.48;2.75;;;24.60;99.90;;;;;;5077118;28;20180;-73
2021/06/03 08:18:14;;;;;;;11.52;3.47;;;24.70;99.90;;;;;;5054351;28;20192;-74
2021/06/03 08:20:48;;;;;;;9.13;2.57;;;24.70;99.90;;;;;;5060043;28;20210;-72
2021/06/03 08:23:17;;;;;;;9.35;3.13;;;24.90;99.90;;;;;;5082475;28;20197;-72
2021/06/03 08:25:45;;;;;;;14.73;3.73;;;25.00;99.90;;;;;;5056185;28;20199;-74
2021/06/03 08:28:12;;;;;;;10.68;2.85;;;25.10;99.90;;;;;;5059837;28;20590;-74
2021/06/03 08:30:39;;;;;;;14.77;3.28;;;25.00;99.90;;;;;;5040698;28;20374;-73
2021/06/03 08:33:08;;;;;;;13.57;3.53;;;25.00;99.90;;;;;;5074416;28;20223;-74
2021/06/03 08:35:36;;;;;;;9.80;2.80;;;25.10;99.90;;;;;;5057197;28;20584;-74
2021/06/03 08:38:06;;;;;;;13.45;2.80;;;25.10;99.90;;;;;;5053058;28;20713;-72
2021/06/03 08:40:57;;;;;;;7.32;2.58;;;25.00;99.90;;;;;;5060183;28;20699;-73
2021/06/03 08:43:32;;;;;;;10.98;2.95;;;25.10;99.90;;;;;;5045649;28;20198;-73
2021/06/03 08:46:02;;;;;;;11.18;3.20;;;25.30;99.90;;;;;;5042756;28;20252;-76
2021/06/03 08:48:28;;;;;;;10.27;3.45;;;25.30;99.90;;;;;;5061287;28;20740;-73
2021/06/03 08:51:08;;;;;;;12.38;3.25;;;25.20;99.90;;;;;;5075509;28;20187;-74
2021/06/03 08:53:35;;;;;;;15.02;3.10;;;25.30;99.90;;;;;;5041626;28;20195;-73
2021/06/03 08:56:19;;;;;;;12.18;3.55;;;25.30;99.90;;;;;;5058141;28;20183;-73
2021/06/03 08:58:57;;;;;;;12.32;3.30;;;25.40;99.90;;;;;;5060304;28;20210;-73
2021/06/03 09:01:24;;;;;;;12.60;2.60;;;25.40;99.90;;;;;;5056784;28;20578;-73
2021/06/03 09:03:51;;;;;;;11.38;3.40;;;25.60;99.90;;;;;;5061716;28;20183;-73
2021/06/03 09:06:21;;;;;;;11.18;2.55;;;25.60;99.90;;;;;;5058647;28;20225;-71
2021/06/03 09:08:57;;;;;;;9.55;2.58;;;25.80;99.90;;;;;;5058972;28;20199;-73
2021/06/03 09:11:29;;;;;;;10.75;3.30;;;25.50;99.90;;;;;;5044425;28;20190;-72
2021/06/03 09:14:06;;;;;;;9.60;2.47;;;25.60;99.90;;;;;;5062686;28;20261;-74
2021/06/03 09:16:35;;;;;;;12.70;2.83;;;25.60;99.90;;;;;;5063059;28;20190;-74
2021/06/03 09:19:12;;;;;;;9.50;2.92;;;25.60;99.90;;;;;;5045276;28;20919;-73
2021/06/03 09:21:51;;;;;;;11.32;2.60;;;25.90;99.90;;;;;;5043839;28;20277;-73
2021/06/03 09:24:20;;;;;;;14.80;2.72;;;26.00;99.90;;;;;;5059267;28;20210;-75
2021/06/03 09:26:50;;;;;;;13.02;3.25;;;25.90;99.90;;;;;;5060035;28;20194;-75
2021/06/03 09:29:35;;;;;;;12.60;2.65;;;25.90;99.90;;;;;;5053624;28;20324;-74
2021/06/03 09:32:11;;;;;;;11.75;3.28;;;25.90;99.90;;;;;;5064363;28;20612;-73
2021/06/03 09:34:41;;;;;;;11.50;2.85;;;26.00;99.90;;;;;;5063015;28;20205;-73
2021/06/03 09:37:10;;;;;;;12.80;3.08;;;26.10;99.90;;;;;;5047916;28;20190;-72
2021/06/03 09:39:40;;;;;;;11.35;3.08;;;26.40;99.90;;;;;;5062192;28;20568;-76
2021/06/03 09:42:15;;;;;;;14.88;2.92;;;26.70;99.90;;;;;;5062065;28;20400;-76
2021/06/03 09:44:56;;;;;;;10.40;3.05;;;26.30;99.90;;;;;;5067378;28;20328;-76
2021/06/03 09:47:41;;;;;;;11.35;2.70;;;26.20;99.90;;;;;;5058289;28;20202;-72
2021/06/03 09:50:10;;;;;;;10.35;2.75;;;26.40;99.90;;;;;;5064873;28;20212;-73
2021/06/03 09:52:38;;;;;;;12.73;3.45;;;26.60;99.90;;;;;;5049208;28;20725;-70
2021/06/03 09:55:11;;;;;;;9.15;3.00;;;26.40;99.90;;;;;;5059279;28;20213;-71
2021/06/03 09:57:42;;;;;;;12.68;2.97;;;26.40;99.90;;;;;;5066088;28;20191;-74
2021/06/03 10:00:22;;;;;;;7.80;3.10;;;26.60;99.90;;;;;;5049092;28;20709;-72
2021/06/03 10:03:00;;;;;;;15.60;3.47;;;26.50;99.90;;;;;;5046017;28;20194;-72
2021/06/03 10:05:27;;;;;;;8.45;3.08;;;26.70;99.90;;;;;;5060690;28;20302;-71
2021/06/03 10:07:59;;;;;;;14.88;3.10;;;27.00;99.90;;;;;;5080866;28;20198;-74
2021/06/03 10:10:29;;;;;;;12.82;2.90;;;26.80;99.90;;;;;;5067322;28;20287;-73
2021/06/03 10:12:57;;;;;;;8.38;3.03;;;26.70;99.90;;;;;;5047152;28;20301;-74
2021/06/03 10:15:25;;;;;;;11.43;3.67;;;26.70;99.90;;;;;;5064535;28;20274;-73
2021/06/03 10:18:07;;;;;;;12.23;3.08;;;27.00;99.90;;;;;;5043448;28;20224;-73
2021/06/03 10:20:56;;;;;;;8.25;3.00;;;26.80;99.90;;;;;;5058337;28;20317;-71
2021/06/03 10:23:29;;;;;;;9.88;3.20;;;27.10;99.90;;;;;;5076460;28;20191;-72
2021/06/03 10:26:02;;;;;;;11.00;2.63;;;26.90;99.90;;;;;;5063012;28;20940;-71
2021/06/03 10:28:28;;;;;;;8.43;2.80;;;27.20;99.90;;;;;;5055593;28;20915;-73
2021/06/03 10:31:01;;;;;;;8.60;2.47;;;26.80;99.90;;;;;;5067850;28;20197;-73
2021/06/03 10:33:32;;;;;;;11.40;2.95;;;27.00;99.90;;;;;;5057686;28;20329;-73
2021/06/03 10:36:03;;;;;;;13.82;3.47;;;26.80;99.90;;;;;;5089450;28;20249;-72
2021/06/03 10:38:31;;;;;;;18.55;3.30;;;27.00;99.90;;;;;;5058401;28;20217;-70
2021/06/03 10:41:07;;;;;;;11.63;3.05;;;26.90;99.90;;;;;;5058169;28;20205;-72
2021/06/03 10:43:39;;;;;;;12.10;3.15;;;26.80;99.90;;;;;;5060207;28;20190;-72
2021/06/03 10:46:09;;;;;;;13.10;2.92;;;27.00;99.90;;;;;;5059654;28;20207;-73
2021/06/03 10:48:41;;;;;;;12.55;2.90;;;26.80;99.90;;;;;;5069497;28;20322;-71
2021/06/03 10:51:10;;;;;;;10.50;3.20;;;26.80;99.90;;;;;;5055831;28;20247;-73
2021/06/03 10:53:46;;;;;;;9.25;3.10;;;26.90;99.90;;;;;;5058299;28;20198;-73
2021/06/03 10:56:26;;;;;;;12.73;3.10;;;26.70;99.90;;;;;;5058022;28;20577;-71
2021/06/03 10:58:53;;;;;;;11.68;3.50;;;26.60;99.90;;;;;;5038292;28;20210;-71
2021/06/03 11:01:22;;;;;;;12.13;3.08;;;27.10;99.90;;;;;;5058476;28;20808;-71
2021/06/03 11:04:10;;;;;;;12.73;2.90;;;27.00;99.90;;;;;;5058022;28;20692;-73
2021/06/03 11:06:46;;;;;;;13.93;3.28;;;27.00;99.90;;;;;;5039710;28;20715;-71
2021/06/03 11:09:13;;;;;;;16.13;3.03;;;27.00;99.90;;;;;;5069696;28;20191;-72
2021/06/03 11:11:47;;;;;;;8.68;3.10;;;27.10;99.90;;;;;;5039722;28;20628;-73
2021/06/03 11:14:19;;;;;;;7.35;2.90;;;27.10;99.90;;;;;;5054932;28;20194;-73
2021/06/03 11:16:55;;;;;;;12.32;3.30;;;27.10;99.90;;;;;;5056756;28;20304;-73
2021/06/03 11:19:30;;;;;;;18.25;3.17;;;27.20;99.90;;;;;;5061414;28;20187;-73
2021/06/03 11:22:07;;;;;;;22.63;3.63;;;27.30;99.90;;;;;;5055782;28;20190;-71
2021/06/03 11:24:37;;;;;;;10.70;2.97;;;27.10;99.90;;;;;;5037544;28;20198;-72
2021/06/03 11:27:13;;;;;;;14.00;2.95;;;27.20;99.90;;;;;;5053877;28;20211;-73
2021/06/03 11:30:01;;;;;;;10.15;3.20;;;27.00;99.90;;;;;;5059367;28;20761;-73
2021/06/03 11:32:33;;;;;;;10.85;3.00;;;27.00;99.90;;;;;;5043782;28;20211;-72
2021/06/03 11:35:05;;;;;;;10.07;2.80;;;27.00;99.90;;;;;;5061204;28;20237;-74
2021/06/03 11:37:41;;;;;;;11.68;3.15;;;27.00;99.90;;;;;;5057369;28;20388;-75
2021/06/03 11:40:08;;;;;;;12.48;2.72;;;26.90;99.90;;;;;;5056782;28;20187;-75
2021/06/03 11:42:57;;;;;;;15.60;3.20;;;27.10;99.90;;;;;;5050691;28;20689;-73
2021/06/03 11:45:45;;;;;;;12.85;3.40;;;26.90;99.90;;;;;;5048068;28;20237;-73
2021/06/03 11:48:18;;;;;;;8.45;3.20;;;27.10;99.90;;;;;;5062784;28;20182;-75
2021/06/03 11:50:51;;;;;;;16.70;3.05;;;27.10;99.90;;;;;;5058974;28;20190;-75
2021/06/03 11:53:30;;;;;;;10.88;2.92;;;27.00;99.90;;;;;;5041585;28;20274;-73
2021/06/03 11:56:18;;;;;;;11.45;3.35;;;27.10;99.90;;;;;;5040656;28;20186;-74
2021/06/03 11:58:47;;;;;;;14.85;3.22;;;26.90;99.90;;;;;;5040056;28;20918;-74
2021/06/03 12:01:16;;;;;;;10.93;3.20;;;26.80;99.90;;;;;;5062393;28;20655;-73
2021/06/03 12:03:50;;;;;;;9.38;3.20;;;27.00;99.90;;;;;;5061525;28;20269;-74
2021/06/03 12:06:41;;;;;;;17.13;3.72;;;27.00;99.90;;;;;;5063619;28;20318;-75
2021/06/03 12:09:49;;;;;;;14.15;3.42;;;27.00;99.90;;;;;;5059579;28;20206;-72
2021/06/03 12:12:16;;;;;;;10.48;3.13;;;26.90;99.90;;;;;;5061947;28;20238;-73
2021/06/03 12:14:44;;;;;;;15.30;2.97;;;26.80;99.90;;;;;;5052020;28;20187;-74
2021/06/03 12:17:11;;;;;;;16.20;3.20;;;26.90;99.90;;;;;;5043758;28;20183;-73
2021/06/03 12:19:45;;;;;;;10.02;3.25;;;26.90;99.90;;;;;;5056229;28;20190;-74
2021/06/03 12:22:16;;;;;;;12.40;3.33;;;26.90;99.90;;;;;;5060480;28;20186;-73
2021/06/03 12:24:47;;;;;;;14.32;3.83;;;26.20;99.90;;;;;;5055771;28;20240;-71
2021/06/03 12:27:32;;;;;;;12.63;3.17;;;26.50;99.90;;;;;;5049886;28;20235;-74
2021/06/03 12:30:22;;;;;;;10.43;3.15;;;26.60;99.90;;;;;;5057267;28;20244;-72
2021/06/03 12:33:16;;;;;;;17.58;3.75;;;26.60;99.90;;;;;;5051146;28;20215;-71
2021/06/03 12:36:05;;;;;;;13.35;3.20;;;26.70;99.90;;;;;;5041702;28;20309;-70
2021/06/03 12:38:42;;;;;;;11.45;3.50;;;26.70;99.90;;;;;;5046556;28;20248;-72
2021/06/03 12:41:36;;;;;;;7.82;2.97;;;26.00;99.90;;;;;;5060285;28;20267;-73
2021/06/03 12:44:11;;;;;;;13.70;3.10;;;26.40;99.90;;;;;;5042505;28;20229;-71
2021/06/03 12:46:40;;;;;;;16.95;3.13;;;26.40;99.90;;;;;;5060048;28;21005;-71
2021/06/03 12:49:17;;;;;;;18.65;2.90;;;25.90;99.90;;;;;;5037496;28;20179;-70
2021/06/03 12:51:59;;;;;;;8.98;2.80;;;26.40;99.90;;;;;;5059366;28;20997;-72
2021/06/03 12:54:42;;;;;;;14.65;3.97;;;26.30;99.90;;;;;;5057263;28;20191;-71
2021/06/03 12:57:15;;;;;;;13.85;3.20;;;26.50;99.90;;;;;;5070143;28;20206;-71
2021/06/03 12:59:58;;;;;;;7.90;2.70;;;26.50;99.90;;;;;;5052900;28;20183;-72
2021/06/03 13:02:33;;;;;;;9.48;2.85;;;26.30;99.90;;;;;;5061291;28;20642;-72
2021/06/03 13:05:13;;;;;;;9.68;2.90;;;26.50;99.90;;;;;;5060378;28;20214;-70